createdAt,value
2022-10-03T00:00:28.458Z,102297.28
2022-10-03T00:03:29.795Z,102293.31
2022-10-03T00:06:02.409Z,102307.41
2022-10-03T00:09:09.260Z,102310.50
2022-10-03T00:11:41.424Z,102311.75
2022-10-03T00:14:27.332Z,102318.44
2022-10-03T00:17:12.565Z,102325.81
2022-10-03T00:19:56.612Z,102331.13
2022-10-03T00:22:32.442Z,102331.78
2022-10-03T00:25:43.200Z,102338.53
2022-10-03T00:28:18.411Z,102327.78
2022-10-03T00:31:15.004Z,102338.84
2022-10-03T00:34:21.397Z,102339.47
2022-10-03T00:36:56.833Z,102341.00
2022-10-03T00:39:29.657Z,102343.53
2022-10-03T00:42:02.562Z,102340.03
2022-10-03T00:44:47.025Z,102346.97
2022-10-03T00:47:58.868Z,102354.72
2022-10-03T00:50:41.268Z,102352.91
2022-10-03T00:53:48.568Z,102359.50
2022-10-03T00:56:34.314Z,102359.06
2022-10-03T00:59:16.276Z,102366.88
2022-10-03T01:01:46.777Z,102369.22
2022-10-03T01:04:32.437Z,102369.16
2022-10-03T01:07:39.700Z,102371.63
2022-10-03T01:10:23.616Z,102369.75
2022-10-03T01:13:14.314Z,102361.34
2022-10-03T01:15:55.507Z,102357.50
2022-10-03T01:18:45.005Z,102362.59
2022-10-03T01:21:54.666Z,102377.09
2022-10-03T01:24:36.826Z,102368.34
2022-10-03T01:27:07.763Z,102373.69
2022-10-03T01:30:03.769Z,102372.19
2022-10-03T01:33:06.427Z,102372.34
2022-10-03T01:35:53.773Z,102379.59
2022-10-03T01:38:25.207Z,102374.41
2022-10-03T01:41:03.205Z,102378.47
2022-10-03T01:43:44.630Z,102377.25
2022-10-03T01:46:22.878Z,102383.09
2022-10-03T01:48:52.647Z,102390.94
2022-10-03T01:51:28.638Z,102388.75
2022-10-03T01:54:32.007Z,102384.44
2022-10-03T01:57:10.882Z,102393.63
2022-10-03T01:59:57.812Z,102396.97
2022-10-03T02:02:47.761Z,102397.38
2022-10-03T02:05:33.199Z,102393.78
2022-10-03T02:08:07.625Z,102396.97
2022-10-03T02:11:13.442Z,102403.94
2022-10-03T02:13:59.117Z,102396.69
2022-10-03T02:16:42.093Z,102398.25
2022-10-03T02:19:36.646Z,102402.53
2022-10-03T02:22:03.683Z,102411.72
2022-10-03T02:25:02.888Z,102402.66
2022-10-03T02:27:52.346Z,102402.09
2022-10-03T02:30:22.102Z,102389.78
2022-10-03T02:32:58.411Z,102391.25
2022-10-03T02:35:34.950Z,102398.25
2022-10-03T02:38:35.684Z,102396.59
2022-10-03T02:41:18.803Z,102405.59
2022-10-03T02:44:04.279Z,102402.50
2022-10-03T02:47:14.549Z,102399.09
2022-10-03T02:50:32.565Z,102388.75
2022-10-03T02:53:37.217Z,102396.19
2022-10-03T02:56:10.083Z,102402.66
2022-10-03T02:59:24.040Z,102405.09
2022-10-03T03:02:09.516Z,102401.63
2022-10-03T03:05:13.167Z,102399.47
2022-10-03T03:07:59.151Z,102409.19
2022-10-03T03:10:28.809Z,102405.25
2022-10-03T03:13:27.922Z,102403.63
2022-10-03T03:16:16.478Z,102409.91
2022-10-03T03:19:01.950Z,102412.81
2022-10-03T03:21:38.903Z,102413.84
2022-10-03T03:24:33.151Z,102413.16
2022-10-03T03:27:41.151Z,102418.06
2022-10-03T03:30:15.812Z,102419.44
2022-10-03T03:33:01.307Z,102419.81
2022-10-03T03:35:46.441Z,102415.31
2022-10-03T03:38:31.995Z,102416.59
2022-10-03T03:41:31.129Z,102417.44
2022-10-03T03:44:36.010Z,102423.88
2022-10-03T03:47:35.171Z,102418.97
2022-10-03T03:50:07.926Z,102425.69
2022-10-03T03:53:07.177Z,102423.88
2022-10-03T03:56:05.841Z,102430.34
2022-10-03T03:58:44.576Z,102434.47
2022-10-03T04:01:36.443Z,102434.03
2022-10-03T04:04:30.387Z,102442.97
2022-10-03T04:07:41.437Z,102440.09
2022-10-03T04:10:20.140Z,102437.16
2022-10-03T04:13:07.810Z,102439.56
2022-10-03T04:15:39.796Z,102436.84
2022-10-03T04:18:47.032Z,102442.28
2022-10-03T04:21:28.943Z,102445.69
2022-10-03T04:24:23.629Z,102448.16
2022-10-03T04:27:08.797Z,102447.03
2022-10-03T04:29:47.993Z,102456.84
2022-10-03T04:32:36.680Z,102451.53
2022-10-03T04:36:02.402Z,102456.50
2022-10-03T04:38:54.648Z,102454.69
2022-10-03T04:41:49.736Z,102455.94
2022-10-03T04:44:38.604Z,102460.78
2022-10-03T04:47:28.734Z,102463.38
2022-10-03T04:50:19.702Z,102469.66
2022-10-03T04:53:12.611Z,102459.38
2022-10-03T04:56:01.204Z,102463.97
2022-10-03T04:58:43.341Z,102472.19
2022-10-03T05:01:23.074Z,102470.53
2022-10-03T05:04:09.629Z,102458.72
2022-10-03T05:06:49.208Z,102467.22
2022-10-03T05:09:24.950Z,102469.78
2022-10-03T05:12:28.516Z,102469.28
2022-10-03T05:15:17.050Z,102473.75
2022-10-03T05:18:06.965Z,102475.94
2022-10-03T05:20:57.926Z,102474.19
2022-10-03T05:23:39.265Z,102471.84
2022-10-03T05:26:44.959Z,102467.97
2022-10-03T05:29:48.547Z,102470.25
2022-10-03T05:32:30.644Z,102477.06
2022-10-03T05:35:04.585Z,102477.25
2022-10-03T05:37:47.466Z,102483.50
2022-10-03T05:40:28.550Z,102479.63
2022-10-03T05:43:22.939Z,102481.56
2022-10-03T05:46:28.346Z,102483.59
2022-10-03T05:49:16.931Z,102480.66
2022-10-03T05:52:12.598Z,102484.06
2022-10-03T05:55:01.433Z,102478.38
2022-10-03T05:58:05.324Z,102489.69
2022-10-03T06:00:51.316Z,102484.16
2022-10-03T06:03:22.148Z,102486.31
2022-10-03T06:06:22.748Z,102482.34
2022-10-03T06:09:44.860Z,102484.50
2022-10-03T06:12:24.381Z,102492.38
2022-10-03T06:15:27.875Z,102497.38
2022-10-03T06:18:15.970Z,102498.50
2022-10-03T06:21:18.453Z,102490.84
2022-10-03T06:24:01.212Z,102494.22
2022-10-03T06:26:40.106Z,102503.03
2022-10-03T06:29:37.902Z,102502.19
2022-10-03T06:32:14.977Z,102509.22
2022-10-03T06:35:03.293Z,102512.50
2022-10-03T06:38:07.791Z,102515.13
2022-10-03T06:40:55.213Z,102521.00
2022-10-03T06:43:57.199Z,102522.03
2022-10-03T06:46:30.931Z,102519.31
2022-10-03T06:49:09.669Z,102529.69
2022-10-03T06:52:17.131Z,102525.50
2022-10-03T06:54:52.822Z,102524.88
2022-10-03T06:57:50.681Z,102532.38
2022-10-03T07:01:03.677Z,102522.66
2022-10-03T07:04:06.742Z,102534.88
2022-10-03T07:07:11.148Z,102535.47
2022-10-03T07:10:01.158Z,102533.63
2022-10-03T07:12:47.422Z,102527.16
2022-10-03T07:15:38.064Z,102532.31
2022-10-03T07:18:47.652Z,102534.63
2022-10-03T07:21:31.178Z,102539.09
2022-10-03T07:24:26.529Z,102544.44
2022-10-03T07:27:27.454Z,102549.16
2022-10-03T07:30:16.288Z,102549.88
2022-10-03T07:33:20.784Z,102552.13
2022-10-03T07:36:44.258Z,102560.81
2022-10-03T07:39:32.808Z,102560.69
2022-10-03T07:42:12.119Z,102558.91
2022-10-03T07:45:04.107Z,102566.31
2022-10-03T07:48:02.088Z,102565.03
2022-10-03T07:50:43.987Z,102567.75
2022-10-03T07:53:20.429Z,102570.97
2022-10-03T07:56:12.122Z,102571.22
2022-10-03T07:58:44.987Z,102575.03
2022-10-03T08:01:42.690Z,102573.78
2022-10-03T08:04:28.527Z,102577.91
2022-10-03T08:07:10.221Z,102580.69
2022-10-03T08:09:55.415Z,102587.75
2022-10-03T08:12:33.676Z,102582.59
2022-10-03T08:15:20.606Z,102587.69
2022-10-03T08:18:24.852Z,102584.25
2022-10-03T08:21:03.351Z,102592.06
2022-10-03T08:23:50.498Z,102587.53
2022-10-03T08:26:34.375Z,102590.16
2022-10-03T08:29:23.753Z,102590.41
2022-10-03T08:32:27.649Z,102587.78
2022-10-03T08:34:57.377Z,102593.28
2022-10-03T08:38:08.476Z,102592.22
2022-10-03T08:40:59.666Z,102597.44
2022-10-03T08:43:41.551Z,102596.31
2022-10-03T08:46:29.098Z,102603.16
2022-10-03T08:49:26.743Z,102596.13
2022-10-03T08:52:18.475Z,102593.75
2022-10-03T08:55:09.001Z,102596.19
2022-10-03T08:57:44.783Z,102595.28
2022-10-03T09:00:29.215Z,102596.16
2022-10-03T09:03:43.997Z,102600.50
2022-10-03T09:06:29.063Z,102597.91
2022-10-03T09:09:04.927Z,102602.91
2022-10-03T09:12:16.351Z,102597.13
2022-10-03T09:15:03.157Z,102602.84
2022-10-03T09:17:49.701Z,102601.16
2022-10-03T09:20:50.347Z,102603.13
2022-10-03T09:24:08.290Z,102605.16
2022-10-03T09:26:38.204Z,102602.84
2022-10-03T09:29:27.074Z,102607.44
2022-10-03T09:32:12.632Z,102604.28
2022-10-03T09:34:47.565Z,102596.81
2022-10-03T09:37:17.417Z,102606.50
2022-10-03T09:40:08.539Z,102611.09
2022-10-03T09:42:56.728Z,102616.19
2022-10-03T09:45:53.172Z,102614.69
2022-10-03T09:48:37.184Z,102614.22
2022-10-03T09:51:30.277Z,102614.06
2022-10-03T09:54:18.677Z,102608.63
2022-10-03T09:57:00.692Z,102616.22
2022-10-03T09:59:44.518Z,102608.66
2022-10-03T10:02:48.967Z,102624.06
2022-10-03T10:05:48.082Z,102610.81
2022-10-03T10:08:29.304Z,102612.28
2022-10-03T10:11:14.338Z,102614.91
2022-10-03T10:14:21.321Z,102607.56
2022-10-03T10:17:26.285Z,102604.59
2022-10-03T10:20:20.417Z,102611.53
2022-10-03T10:23:21.310Z,102612.97
2022-10-03T10:26:15.502Z,102612.22
2022-10-03T10:28:51.521Z,102601.75
2022-10-03T10:31:46.306Z,102610.19
2022-10-03T10:34:32.208Z,102608.78
2022-10-03T10:37:19.239Z,102605.91
2022-10-03T10:40:36.125Z,102611.88
2022-10-03T10:43:36.807Z,102609.00
2022-10-03T10:46:25.345Z,102600.34
2022-10-03T10:49:16.659Z,102616.91
2022-10-03T10:52:11.858Z,102608.03
2022-10-03T10:55:05.190Z,102603.25
2022-10-03T10:57:40.536Z,102613.66
2022-10-03T11:00:09.050Z,102616.44
2022-10-03T11:03:09.923Z,102608.88
2022-10-03T11:05:55.457Z,102602.16
2022-10-03T11:08:45.822Z,102607.34
2022-10-03T11:11:36.881Z,102597.91
2022-10-03T11:14:18.490Z,102607.50
2022-10-03T11:17:09.738Z,102603.94
2022-10-03T11:20:14.258Z,102606.28
2022-10-03T11:22:43.939Z,102595.72
2022-10-03T11:25:40.474Z,102598.03
2022-10-03T11:28:46.385Z,102599.31
2022-10-03T11:31:35.170Z,102597.25
2022-10-03T11:34:17.162Z,102609.34
2022-10-03T11:37:09.445Z,102605.34
2022-10-03T11:39:45.202Z,102598.03
2022-10-03T11:42:37.571Z,102602.31
2022-10-03T11:45:07.107Z,102599.53
2022-10-03T11:47:50.014Z,102592.00
2022-10-03T11:50:25.974Z,102590.59
2022-10-03T11:52:55.581Z,102589.59
2022-10-03T11:55:31.848Z,102593.50
2022-10-03T11:58:49.509Z,102580.72
2022-10-03T12:01:50.816Z,102588.19
2022-10-03T12:04:40.626Z,102581.97
2022-10-03T12:07:57.555Z,102583.50
2022-10-03T12:10:39.039Z,102596.91
2022-10-03T12:13:17.416Z,102592.56
2022-10-03T12:15:54.396Z,102589.41
2022-10-03T12:18:42.796Z,102587.09
2022-10-03T12:21:21.635Z,102585.22
2022-10-03T12:24:08.148Z,102585.22
2022-10-03T12:26:54.474Z,102593.94
2022-10-03T12:29:25.514Z,102584.44
2022-10-03T12:32:25.731Z,102587.66
2022-10-03T12:35:08.147Z,102586.91
2022-10-03T12:38:08.951Z,102594.34
2022-10-03T12:40:43.696Z,102602.88
2022-10-03T12:43:36.369Z,102588.09
2022-10-03T12:46:14.078Z,102588.38
2022-10-03T12:49:05.228Z,102595.16
2022-10-03T12:51:42.577Z,102593.31
2022-10-03T12:54:30.695Z,102597.59
2022-10-03T12:57:22.069Z,102597.84
2022-10-03T13:00:07.054Z,102592.00
2022-10-03T13:02:59.310Z,102594.41
2022-10-03T13:05:56.238Z,102591.69
2022-10-03T13:08:55.485Z,102604.34
2022-10-03T13:11:32.557Z,102591.53
2022-10-03T13:14:15.842Z,102589.25
2022-10-03T13:17:05.796Z,102581.50
2022-10-03T13:19:58.623Z,102580.53
2022-10-03T13:22:28.389Z,102582.38
2022-10-03T13:25:01.100Z,102580.25
2022-10-03T13:27:29.218Z,102585.72
2022-10-03T13:30:05.567Z,102586.09
2022-10-03T13:32:38.189Z,102588.19
2022-10-03T13:35:51.481Z,102585.22
2022-10-03T13:38:43.838Z,102573.00
2022-10-03T13:41:25.346Z,102579.84
2022-10-03T13:44:10.795Z,102579.00
2022-10-03T13:46:48.601Z,102576.03
2022-10-03T13:49:45.366Z,102575.69
2022-10-03T13:52:37.229Z,102565.75
2022-10-03T13:55:45.607Z,102563.97
2022-10-03T13:58:23.246Z,102561.66
2022-10-03T14:01:21.670Z,102559.56
2022-10-03T14:03:55.248Z,102563.97
2022-10-03T14:06:37.996Z,102564.09
2022-10-03T14:10:03.764Z,102563.13
2022-10-03T14:12:56.050Z,102553.66
2022-10-03T14:15:27.143Z,102559.81
2022-10-03T14:18:05.951Z,102547.97
2022-10-03T14:20:58.573Z,102546.34
2022-10-03T14:23:48.171Z,102550.91
2022-10-03T14:26:33.498Z,102540.44
2022-10-03T14:29:12.970Z,102534.50
2022-10-03T14:31:57.009Z,102537.94
2022-10-03T14:34:33.321Z,102534.53
2022-10-03T14:37:39.937Z,102530.25
2022-10-03T14:40:28.026Z,102526.41
2022-10-03T14:43:00.124Z,102522.81
2022-10-03T14:45:38.309Z,102522.03
2022-10-03T14:48:12.667Z,102523.84
2022-10-03T14:50:41.923Z,102518.09
2022-10-03T14:53:24.009Z,102526.88
2022-10-03T14:56:03.776Z,102517.59
2022-10-03T14:58:35.674Z,102510.91
2022-10-03T15:01:13.113Z,102513.28
2022-10-03T15:03:45.341Z,102516.94
2022-10-03T15:06:12.099Z,102522.13
2022-10-03T15:08:43.544Z,102520.03
2022-10-03T15:11:15.098Z,102521.16
2022-10-03T15:13:51.020Z,102521.56
2022-10-03T15:16:21.528Z,102516.16
2022-10-03T15:19:07.298Z,102511.78
2022-10-03T15:21:35.406Z,102517.28
2022-10-03T15:24:06.806Z,102518.41
2022-10-03T15:26:36.459Z,102515.16
2022-10-03T15:29:07.403Z,102514.69
2022-10-03T15:31:36.434Z,102513.66
2022-10-03T15:34:25.833Z,102519.56
2022-10-03T15:36:58.190Z,102511.47
2022-10-03T15:39:35.421Z,102508.94
2022-10-03T15:42:06.220Z,102512.66
2022-10-03T15:44:39.644Z,102508.31
2022-10-03T15:47:12.856Z,102506.97
2022-10-03T15:50:02.532Z,102501.97
2022-10-03T15:53:34.457Z,102502.56
2022-10-03T15:56:24.055Z,102499.47
2022-10-03T15:58:57.187Z,102501.59
2022-10-03T16:01:39.711Z,102500.50
2022-10-03T16:04:25.677Z,102488.63
2022-10-03T16:06:55.327Z,102481.38
2022-10-03T16:09:22.023Z,102485.69
2022-10-03T16:12:11.679Z,102486.97
2022-10-03T16:14:42.160Z,102490.47
2022-10-03T16:17:19.766Z,102489.00
2022-10-03T16:19:56.793Z,102484.31
2022-10-03T16:22:45.489Z,102478.97
2022-10-03T16:25:25.137Z,102479.81
2022-10-03T16:28:05.374Z,102475.41
2022-10-03T16:30:41.760Z,102470.97
2022-10-03T16:33:27.463Z,102470.84
2022-10-03T16:36:09.321Z,102465.75
2022-10-03T16:38:44.323Z,102468.59
2022-10-03T16:41:31.818Z,102467.25
2022-10-03T16:44:18.049Z,102467.25
2022-10-03T16:46:46.374Z,102466.06
2022-10-03T16:49:44.033Z,102456.44
2022-10-03T16:52:14.819Z,102461.75
2022-10-03T16:54:43.431Z,102467.72
2022-10-03T16:57:19.190Z,102463.31
2022-10-03T16:59:52.166Z,102467.06
2022-10-03T17:02:24.458Z,102465.41
2022-10-03T17:05:03.805Z,102451.84
2022-10-03T17:07:40.543Z,102452.09
2022-10-03T17:10:27.878Z,102458.13
2022-10-03T17:13:03.392Z,102461.59
2022-10-03T17:15:38.665Z,102455.75
2022-10-03T17:18:16.976Z,102452.09
2022-10-03T17:20:50.583Z,102452.47
2022-10-03T17:23:24.209Z,102449.88
2022-10-03T17:25:58.715Z,102446.44
2022-10-03T17:28:55.023Z,102444.25
2022-10-03T17:31:28.681Z,102438.50
2022-10-03T17:34:17.042Z,102437.69
2022-10-03T17:36:56.624Z,102437.81
2022-10-03T17:39:50.659Z,102446.97
2022-10-03T17:42:26.575Z,102451.91
2022-10-03T17:45:06.796Z,102444.16
2022-10-03T17:48:05.444Z,102451.91
2022-10-03T17:50:44.746Z,102449.75
2022-10-03T17:53:29.084Z,102450.78
2022-10-03T17:56:04.767Z,102456.78
2022-10-03T17:58:33.081Z,102456.06
2022-10-03T18:01:10.245Z,102460.22
2022-10-03T18:03:58.557Z,102457.97
2022-10-03T18:06:44.156Z,102456.97
2022-10-03T18:09:38.571Z,102455.56
2022-10-03T18:12:31.073Z,102446.75
2022-10-03T18:15:37.818Z,102444.34
2022-10-03T18:18:34.337Z,102441.84
2022-10-03T18:21:24.904Z,102449.44
2022-10-03T18:23:55.053Z,102451.03
2022-10-03T18:26:36.949Z,102445.81
2022-10-03T18:29:22.426Z,102451.47
2022-10-03T18:31:57.687Z,102452.38
2022-10-03T18:34:34.560Z,102452.09
2022-10-03T18:37:16.838Z,102447.03
2022-10-03T18:39:47.657Z,102447.41
2022-10-03T18:42:18.451Z,102435.50
2022-10-03T18:44:46.339Z,102431.31
2022-10-03T18:47:26.168Z,102427.50
2022-10-03T18:50:20.900Z,102425.81
2022-10-03T18:52:55.143Z,102431.31
2022-10-03T18:55:36.698Z,102424.09
2022-10-03T18:58:28.054Z,102415.41
2022-10-03T19:01:24.511Z,102430.53
2022-10-03T19:04:09.427Z,102422.09
2022-10-03T19:06:45.132Z,102421.09
2022-10-03T19:09:19.548Z,102416.09
2022-10-03T19:12:10.029Z,102420.09
2022-10-03T19:14:45.972Z,102415.50
2022-10-03T19:17:32.573Z,102414.06
2022-10-03T19:20:16.440Z,102419.59
2022-10-03T19:23:23.011Z,102415.91
2022-10-03T19:25:56.637Z,102416.50
2022-10-03T19:28:31.875Z,102409.19
2022-10-03T19:31:13.446Z,102399.78
2022-10-03T19:33:48.989Z,102406.31
2022-10-03T19:36:32.899Z,102408.16
2022-10-03T19:39:00.925Z,102409.81
2022-10-03T19:41:40.746Z,102407.63
2022-10-03T19:44:14.136Z,102412.22
2022-10-03T19:46:49.845Z,102410.75
2022-10-03T19:49:31.264Z,102405.19
2022-10-03T19:52:25.393Z,102405.53
2022-10-03T19:55:29.112Z,102408.78
2022-10-03T19:58:03.932Z,102403.00
2022-10-03T20:00:39.317Z,102401.28
2022-10-03T20:03:14.307Z,102398.91
2022-10-03T20:05:56.133Z,102403.69
2022-10-03T20:08:35.493Z,102400.50
2022-10-03T20:11:21.032Z,102397.69
2022-10-03T20:13:49.312Z,102398.19
2022-10-03T20:16:20.594Z,102392.88
2022-10-03T20:18:51.742Z,102396.47
2022-10-03T20:21:23.688Z,102401.69
2022-10-03T20:23:53.670Z,102400.31
2022-10-03T20:26:33.465Z,102396.41
2022-10-03T20:29:08.993Z,102387.47
2022-10-03T20:31:36.857Z,102394.41
2022-10-03T20:34:13.324Z,102395.22
2022-10-03T20:36:46.530Z,102394.44
2022-10-03T20:39:19.716Z,102391.88
2022-10-03T20:42:04.070Z,102381.78
2022-10-03T20:44:50.508Z,102379.13
2022-10-03T20:47:44.157Z,102382.66
2022-10-03T20:50:22.237Z,102387.69
2022-10-03T20:52:52.695Z,102380.13
2022-10-03T20:55:24.912Z,102388.25
2022-10-03T20:58:00.054Z,102378.19
2022-10-03T21:00:28.694Z,102373.91
2022-10-03T21:03:07.896Z,102375.50
2022-10-03T21:05:38.956Z,102373.81
2022-10-03T21:08:14.163Z,102376.03
2022-10-03T21:10:47.325Z,102375.97
2022-10-03T21:13:20.210Z,102382.13
2022-10-03T21:15:48.128Z,102378.38
2022-10-03T21:18:25.102Z,102373.94
2022-10-03T21:21:24.399Z,102383.13
2022-10-03T21:24:06.762Z,102373.47
2022-10-03T21:26:42.806Z,102366.09
2022-10-03T21:29:23.777Z,102367.75
2022-10-03T21:32:17.501Z,102360.31
2022-10-03T21:35:10.847Z,102358.69
2022-10-03T21:37:49.428Z,102360.41
2022-10-03T21:40:48.096Z,102357.22
2022-10-03T21:43:52.142Z,102347.56
2022-10-03T21:46:37.899Z,102343.13
2022-10-03T21:49:32.272Z,102329.19
2022-10-03T21:52:26.436Z,102329.59
2022-10-03T21:55:11.476Z,102324.16
2022-10-03T21:57:38.325Z,102315.31
2022-10-03T22:00:39.117Z,102300.94
2022-10-03T22:03:21.314Z,102294.50
2022-10-03T22:06:03.380Z,102297.09
2022-10-03T22:08:34.078Z,102290.91
2022-10-03T22:11:17.611Z,102299.88
2022-10-03T22:14:01.147Z,102293.66
2022-10-03T22:16:46.154Z,102294.06
2022-10-03T22:19:12.861Z,102286.56
2022-10-03T22:21:54.897Z,102295.03
2022-10-03T22:24:51.046Z,102309.16
2022-10-03T22:27:32.615Z,102300.06
2022-10-03T22:30:12.285Z,102302.19
2022-10-03T22:32:48.411Z,102306.88
2022-10-03T22:35:21.312Z,102298.94
2022-10-03T22:37:48.346Z,102294.19
2022-10-03T22:40:15.376Z,102287.19
2022-10-03T22:42:50.062Z,102286.09
2022-10-03T22:45:18.083Z,102278.47
2022-10-03T22:47:51.009Z,102274.00
2022-10-03T22:50:23.640Z,102275.69
2022-10-03T22:52:52.119Z,102263.13
2022-10-03T22:55:22.418Z,102265.44
2022-10-03T22:57:50.993Z,102272.44
2022-10-03T23:00:27.298Z,102273.53
2022-10-03T23:03:14.078Z,102264.97
2022-10-03T23:05:56.014Z,102260.63
2022-10-03T23:08:51.957Z,102266.94
2022-10-03T23:11:24.436Z,102266.31
2022-10-03T23:13:51.530Z,102264.94
2022-10-03T23:16:44.287Z,102260.22
2022-10-03T23:19:23.502Z,102271.22
2022-10-03T23:21:53.025Z,102265.38
2022-10-03T23:24:22.747Z,102262.34
2022-10-03T23:27:22.369Z,102262.72
2022-10-03T23:30:11.704Z,102255.09
2022-10-03T23:32:47.524Z,102260.22
2022-10-03T23:35:20.508Z,102257.28
2022-10-03T23:37:49.166Z,102251.72
2022-10-03T23:40:30.426Z,102261.44
2022-10-03T23:43:05.016Z,102258.63
2022-10-03T23:45:35.655Z,102251.94
2022-10-03T23:48:14.587Z,102253.66
2022-10-03T23:50:43.004Z,102257.84
2022-10-03T23:53:38.776Z,102252.22
2022-10-03T23:56:22.910Z,102251.94
2022-10-03T23:59:07.803Z,102242.75
